Time;durP1;ratioP1;P1;durP2;ratioP2;P2;SDS_P1;SDS_P2;PMS_P1;PMS_P2;Temp;Humidity;BMP_temperature;BMP_pressure;BME280_temperature;BME280_humidity;BME280_pressure;Samples;Min_cycle;Max_cycle;Signal;HPM_P1;HPM_P2
2022/02/07 00:01:10;;;;;;;0.10;0.05;;;;;;;4.77;76.91;98750.91;5069122;28;20270;-79
2022/02/07 00:06:04;;;;;;;0.80;0.10;;;;;;;4.70;76.68;98730.09;5072033;28;20043;-78
2022/02/07 00:08:32;;;;;;;1.35;0.38;;;;;;;4.71;76.80;98719.59;5070629;28;20078;-80
2022/02/07 00:10:57;;;;;;;1.60;0.22;;;;;;;4.73;77.36;98764.88;5070770;28;20028;-79
2022/02/07 00:13:23;;;;;;;1.63;0.43;;;;;;;4.77;77.18;98723.91;5071843;28;20515;-80
2022/02/07 00:15:48;;;;;;;1.55;0.40;;;;;;;4.68;76.19;98730.09;5072087;28;20047;-80
2022/02/07 00:18:14;;;;;;;0.50;0.30;;;;;;;4.66;75.50;98760.59;5071384;28;20047;-80
2022/02/07 00:20:39;;;;;;;1.65;0.30;;;;;;;4.63;74.28;98751.94;5071974;28;20041;-80
2022/02/07 00:23:06;;;;;;;2.60;0.43;;;;;;;4.66;74.48;98751.91;5054535;28;20040;-80
2022/02/07 00:25:32;;;;;;;0.30;0.20;;;;;;;4.68;74.61;98747.53;5050206;28;20039;-79
2022/02/07 00:27:57;;;;;;;3.28;0.60;;;;;;;4.58;75.07;98760.72;5068398;28;20512;-79
2022/02/07 00:30:22;;;;;;;0.82;0.30;;;;;;;4.57;74.58;98777.25;5053169;28;20409;-80
2022/02/07 00:32:48;;;;;;;2.47;0.20;;;;;;;4.60;73.49;98781.56;5068310;28;20472;-79
2022/02/07 00:35:17;;;;;;;1.30;0.40;;;;;;;4.61;73.63;98775.44;5071539;28;20029;-79
2022/02/07 00:37:45;;;;;;;2.25;0.40;;;;;;;4.64;74.25;98775.44;5073972;28;20029;-79
2022/02/07 00:43:02;;;;;;;3.30;0.80;;;;;;;4.60;73.03;98776.34;5072330;28;20043;-80
2022/02/07 00:48:01;;;;;;;3.20;0.68;;;;;;;4.41;73.05;98766.97;5053073;28;20036;-79
2022/02/07 00:50:31;;;;;;;2.17;0.75;;;;;;;4.44;72.71;98772.16;5053881;28;20453;-79
2022/02/07 00:52:56;;;;;;;5.57;0.82;;;;;;;4.44;72.44;98778.25;5050443;28;20067;-78
2022/02/07 00:55:22;;;;;;;2.75;0.70;;;;;;;4.52;72.05;98788.63;5051445;28;20108;-79
2022/02/07 00:57:47;;;;;;;2.38;0.57;;;;;;;4.55;72.10;98767.69;5068131;28;20033;-79
2022/02/07 01:00:13;;;;;;;2.22;0.57;;;;;;;4.50;71.83;98777.31;5038335;28;20032;-78
2022/02/07 01:02:41;;;;;;;3.92;0.77;;;;;;;4.47;72.59;98787.81;5056933;28;20032;-78
2022/02/07 01:05:07;;;;;;;3.67;0.55;;;;;;;4.48;71.55;98794.75;5057668;28;20035;-79
2022/02/07 01:07:33;;;;;;;2.67;0.60;;;;;;;4.47;71.49;98782.56;5040412;28;20071;-79
2022/02/07 01:09:59;;;;;;;2.15;0.50;;;;;;;4.46;71.45;98796.53;5091146;28;20242;-79
2022/02/07 01:15:39;;;;;;;6.15;0.93;;;;;;;4.33;71.41;98807.09;5061948;28;20066;-79
2022/02/07 01:21:48;;;;;;;5.40;0.88;;;;;;;4.20;71.05;98823.72;5063758;28;20442;-79
2022/02/07 01:46:04;;;;;;;6.45;1.00;;;;;;;4.18;70.53;98818.50;5073649;28;20032;-79
2022/02/07 01:54:36;;;;;;;6.03;0.70;;;;;;;4.32;72.74;98868.03;5057587;28;20089;-79
2022/02/07 01:57:13;;;;;;;3.10;0.70;;;;;;;4.31;72.82;98881.09;5068811;28;20052;-79
2022/02/07 01:59:41;;;;;;;5.43;0.60;;;;;;;4.24;72.88;98884.63;5049887;28;20099;-80
2022/02/07 02:02:08;;;;;;;3.13;0.68;;;;;;;4.29;72.51;98906.34;5054721;28;20028;-79
2022/02/07 02:04:35;;;;;;;6.32;1.20;;;;;;;4.24;72.70;98901.16;5049828;28;20032;-78
2022/02/07 02:07:02;;;;;;;7.72;0.90;;;;;;;4.12;73.15;98920.38;5075675;28;20560;-79
2022/02/07 02:09:30;;;;;;;4.13;0.63;;;;;;;4.13;72.95;98897.75;5057263;28;20070;-79
2022/02/07 02:11:56;;;;;;;4.95;1.10;;;;;;;3.92;74.64;98920.50;5070482;28;20024;-78
2022/02/07 02:17:24;;;;;;;7.43;1.13;;;;;;;3.53;76.53;98933.72;5057250;28;20040;-79
2022/02/07 02:36:28;;;;;;;6.00;0.90;;;;;;;2.98;77.49;99002.47;5056716;28;20036;-79
2022/02/07 02:46:55;;;;;;;2.50;0.80;;;;;;;2.75;77.13;99049.34;5074227;28;20463;-80
2022/02/07 02:49:22;;;;;;;4.95;0.60;;;;;;;2.72;77.39;99070.19;5056048;28;20031;-80
2022/02/07 02:51:47;;;;;;;4.22;0.70;;;;;;;2.80;76.40;99058.03;5047728;28;20028;-80
2022/02/07 02:54:13;;;;;;;3.28;0.68;;;;;;;2.67;76.72;99066.69;5053287;28;20074;-79
2022/02/07 02:56:40;;;;;;;2.08;0.40;;;;;;;2.70;76.04;99069.31;5055983;28;20060;-80
2022/02/07 02:59:07;;;;;;;3.10;0.60;;;;;;;2.61;75.98;99112.69;5056144;28;20036;-80
2022/02/07 03:01:36;;;;;;;3.05;0.40;;;;;;;2.58;75.92;99104.88;5054677;28;20028;-80
2022/02/07 03:04:14;;;;;;;4.45;0.77;;;;;;;2.60;75.46;99103.16;5055905;28;20094;-80
2022/02/07 03:06:41;;;;;;;3.67;0.55;;;;;;;2.51;75.97;99123.94;5055654;28;20031;-79
2022/02/07 03:09:14;;;;;;;2.67;0.70;;;;;;;2.49;75.62;99130.91;5038018;28;20063;-79
2022/02/07 03:11:41;;;;;;;1.98;0.40;;;;;;;2.48;75.68;99121.34;5055613;28;20043;-79
2022/02/07 03:14:18;;;;;;;3.15;0.55;;;;;;;2.55;75.17;99149.16;5055357;28;20103;-78
2022/02/07 03:16:47;;;;;;;3.25;0.75;;;;;;;2.80;74.02;99144.00;5072127;28;20054;-79
2022/02/07 03:19:16;;;;;;;2.97;0.70;;;;;;;2.89;73.93;99145.81;5055627;28;20024;-79
2022/02/07 03:21:44;;;;;;;2.30;0.50;;;;;;;2.96;73.78;99153.63;5053204;28;20032;-78
2022/02/07 03:24:11;;;;;;;5.90;0.95;;;;;;;2.94;74.09;99150.16;5052952;28;20568;-79
2022/02/07 03:26:49;;;;;;;5.68;0.50;;;;;;;3.01;73.67;99159.75;5054176;28;20033;-79
2022/02/07 03:29:22;;;;;;;3.97;0.50;;;;;;;3.04;73.71;99182.34;5055669;28;20477;-79
2022/02/07 03:31:48;;;;;;;3.28;0.65;;;;;;;3.00;74.69;99183.19;5071554;28;20075;-79
2022/02/07 03:34:20;;;;;;;4.45;0.60;;;;;;;3.06;73.53;99199.69;5055069;28;20044;-79
2022/02/07 03:36:47;;;;;;;3.47;0.70;;;;;;;3.11;73.34;99219.69;5055272;28;20039;-78
2022/02/07 03:39:14;;;;;;;2.83;0.65;;;;;;;3.08;73.49;99228.38;5055068;28;20488;-79
2022/02/07 03:41:40;;;;;;;3.10;0.70;;;;;;;3.07;73.58;99221.44;5053016;28;20071;-79
2022/02/07 03:44:06;;;;;;;3.83;0.60;;;;;;;3.15;73.57;99250.13;5054849;28;20111;-79
2022/02/07 03:46:33;;;;;;;2.53;0.40;;;;;;;3.14;73.02;99233.59;5073305;28;20039;-79
2022/02/07 03:52:10;;;;;;;4.88;0.85;;;;;;;3.14;73.52;99245.78;5022677;28;20046;-78
2022/02/07 03:55:09;;;;;;;3.92;0.70;;;;;;;3.10;73.06;99264.88;5013893;28;20041;-78
2022/02/07 03:57:46;;;;;;;4.43;0.50;;;;;;;3.16;72.98;99254.47;5008481;28;20041;-78
2022/02/07 04:01:00;;;;;;;3.55;0.50;;;;;;;3.13;73.06;99264.91;5012072;28;20042;-78
2022/02/07 04:03:46;;;;;;;;;;;;;;;;;;;;;
2022/02/07 04:07:02;;;;;;;8.95;1.45;;;;;;;3.13;73.67;99272.72;5007764;28;19967;-79
2022/02/07 04:10:02;;;;;;;3.55;1.23;;;;;;;3.07;73.86;99312.66;4952445;29;20121;-78
2022/02/07 04:20:56;;;;;;;7.50;1.30;;;;;;;3.21;75.00;99312.72;4940063;28;20523;-77
2022/02/07 04:27:55;;;;;;;4.18;1.10;;;;;;;3.11;76.80;99337.88;4893733;29;20048;-77
2022/02/07 04:30:33;;;;;;;5.40;0.90;;;;;;;3.07;77.32;99354.38;4907447;29;20043;-77
2022/02/07 04:33:19;;;;;;;5.00;0.80;;;;;;;3.03;78.08;99353.47;4931772;29;20035;-77
2022/02/07 04:35:45;;;;;;;9.70;1.30;;;;;;;3.03;78.60;99352.59;4944791;28;20051;-77
2022/02/07 04:38:10;;;;;;;7.13;1.55;;;;;;;3.02;78.96;99359.56;5017002;28;20049;-77
2022/02/07 04:40:39;;;;;;;4.63;1.42;;;;;;;3.00;79.06;99374.31;5024081;28;20061;-77
2022/02/07 04:43:07;;;;;;;6.40;1.08;;;;;;;2.99;79.23;99383.00;5024931;28;20033;-77
2022/02/07 04:45:44;;;;;;;7.60;1.15;;;;;;;2.94;79.51;99395.13;5027174;28;20405;-77
2022/02/07 04:48:39;;;;;;;3.00;0.93;;;;;;;2.81;81.40;99409.81;5009104;28;20424;-76
2022/02/07 04:54:08;;;;;;;9.25;1.83;;;;;;;2.78;81.31;99419.34;4983502;28;20058;-77
2022/02/07 04:59:22;;;;;;;6.10;1.20;;;;;;;2.81;80.71;99415.03;5007783;28;20106;-79
2022/02/07 05:01:53;;;;;;;7.47;2.03;;;;;;;2.76;80.51;99411.50;5012805;28;20026;-77
2022/02/07 05:04:26;;;;;;;10.98;2.22;;;;;;;2.87;79.56;99419.41;5009546;28;20302;-79
2022/02/07 05:15:08;;;;;;;9.07;2.20;;;;;;;3.13;76.62;99447.38;5006962;28;20393;-78
2022/02/07 05:17:38;;;;;;;9.88;1.90;;;;;;;3.16;76.33;99452.63;5006131;28;20034;-78
2022/02/07 05:20:13;;;;;;;8.85;2.17;;;;;;;3.20;75.50;99494.38;5029381;28;20048;-77
2022/02/07 05:22:59;;;;;;;9.27;1.67;;;;;;;3.23;75.03;99470.06;5013112;28;20029;-77
2022/02/07 05:25:40;;;;;;;6.88;1.60;;;;;;;3.25;75.65;99489.19;4997378;28;20546;-78
2022/02/07 05:28:31;;;;;;;11.43;2.53;;;;;;;3.07;75.95;99501.22;5009342;28;20034;-77
2022/02/07 05:31:12;;;;;;;9.40;1.48;;;;;;;3.16;76.32;99515.19;5023472;28;20471;-77
2022/02/07 05:33:55;;;;;;;7.95;1.42;;;;;;;3.17;75.88;99514.31;5009407;28;20455;-78
2022/02/07 05:36:43;;;;;;;8.60;1.17;;;;;;;3.16;76.39;99541.25;5025001;28;20055;-77
2022/02/07 05:39:34;;;;;;;6.88;1.45;;;;;;;2.95;77.62;99526.31;5025494;28;20624;-79
2022/02/07 05:42:22;;;;;;;7.70;1.90;;;;;;;2.83;78.75;99547.94;5028767;28;20050;-77
2022/02/07 05:45:04;;;;;;;9.23;1.27;;;;;;;2.73;79.96;99566.97;5015343;28;20041;-78
2022/02/07 05:47:44;;;;;;;8.65;1.25;;;;;;;2.71;79.28;99568.66;5028675;28;20026;-78
2022/02/07 05:50:28;;;;;;;13.30;2.65;;;;;;;2.70;79.73;99575.63;5013409;28;20524;-79
2022/02/07 05:53:12;;;;;;;12.68;2.00;;;;;;;2.67;79.39;99585.13;5026695;28;20156;-79
2022/02/07 05:56:00;;;;;;;7.82;1.52;;;;;;;2.67;79.66;99593.78;5017729;28;20041;-78
2022/02/07 05:58:53;;;;;;;7.82;1.67;;;;;;;2.73;78.56;99619.06;5011161;28;20038;-78
2022/02/07 06:01:21;;;;;;;11.38;1.77;;;;;;;2.78;79.13;99617.38;5030280;28;20056;-77
2022/02/07 06:03:47;;;;;;;15.38;1.90;;;;;;;2.79;78.67;99634.75;5008882;28;20025;-77
2022/02/07 06:06:13;;;;;;;8.80;2.20;;;;;;;2.81;78.49;99638.25;5010480;28;20048;-77
2022/02/07 06:08:39;;;;;;;7.15;1.88;;;;;;;2.84;78.41;99643.50;5012384;28;20033;-78
2022/02/07 06:11:08;;;;;;;10.00;1.75;;;;;;;2.86;79.47;99660.03;5023557;28;20095;-77
2022/02/07 06:13:37;;;;;;;7.78;1.50;;;;;;;2.71;80.66;99649.44;4997807;28;20501;-78
2022/02/07 06:16:07;;;;;;;13.05;1.55;;;;;;;2.66;80.60;99657.19;5017720;28;20164;-78
2022/02/07 06:18:33;;;;;;;12.23;1.75;;;;;;;2.66;80.76;99670.22;5021790;28;20033;-77
2022/02/07 06:21:04;;;;;;;9.15;1.83;;;;;;;2.62;81.24;99678.88;5006781;28;20025;-78
2022/02/07 06:23:32;;;;;;;8.32;1.67;;;;;;;2.64;81.68;99670.19;4997087;28;20107;-78
2022/02/07 06:26:02;;;;;;;11.30;1.90;;;;;;;2.65;80.91;99697.13;5015358;28;20069;-78
2022/02/07 06:28:29;;;;;;;6.15;1.15;;;;;;;2.68;80.87;99698.91;5006237;28;20025;-77
2022/02/07 06:30:58;;;;;;;8.75;2.00;;;;;;;2.78;79.24;99732.03;5030115;28;20029;-77
2022/02/07 06:33:24;;;;;;;10.15;1.63;;;;;;;2.82;79.24;99699.94;5007712;28;20512;-77
2022/02/07 06:35:53;;;;;;;10.13;1.60;;;;;;;2.85;78.96;99710.38;5006761;28;20260;-77
2022/02/07 06:38:19;;;;;;;8.90;2.42;;;;;;;2.84;80.03;99711.25;5028316;28;20030;-78
2022/02/07 06:40:44;;;;;;;11.90;2.03;;;;;;;2.78;79.67;99732.91;5027872;28;20024;-78
2022/02/07 06:43:10;;;;;;;7.45;1.73;;;;;;;2.78;80.12;99735.50;5003888;28;20065;-77
2022/02/07 06:45:35;;;;;;;8.45;2.22;;;;;;;2.77;81.08;99735.47;5008033;28;20061;-78
2022/02/07 06:48:01;;;;;;;7.30;1.60;;;;;;;2.76;81.06;99745.03;5012017;28;20120;-78
2022/02/07 06:50:30;;;;;;;12.23;2.30;;;;;;;2.79;80.49;99758.09;5004166;28;20383;-78
2022/02/07 06:52:56;;;;;;;10.02;1.80;;;;;;;2.83;80.46;99766.84;5026412;28;20032;-77
2022/02/07 06:55:21;;;;;;;10.13;1.90;;;;;;;2.86;80.82;99759.06;5026046;28;20057;-78
2022/02/07 06:57:47;;;;;;;8.57;1.77;;;;;;;2.85;81.19;99771.19;5026942;28;20038;-78
2022/02/07 07:00:17;;;;;;;8.73;1.65;;;;;;;2.90;80.53;99792.13;5004314;28;20029;-77
2022/02/07 07:02:43;;;;;;;7.22;1.52;;;;;;;2.89;80.46;99797.31;5026958;28;20030;-77
2022/02/07 07:05:13;;;;;;;5.20;1.15;;;;;;;2.91;80.60;99795.59;5010781;28;20029;-77
2022/02/07 07:07:41;;;;;;;8.38;2.15;;;;;;;3.00;80.58;99786.16;5007494;28;20140;-78
2022/02/07 07:10:08;;;;;;;8.23;2.22;;;;;;;3.01;79.84;99808.78;5027112;28;20564;-78
2022/02/07 07:12:36;;;;;;;9.85;1.60;;;;;;;2.99;80.25;99833.97;5030930;28;20460;-78
2022/02/07 07:15:13;;;;;;;8.80;1.55;;;;;;;3.02;79.95;99836.59;5004798;28;20042;-78
2022/02/07 07:17:38;;;;;;;12.10;2.40;;;;;;;3.02;80.45;99820.09;5022690;28;20485;-77
2022/02/07 07:20:05;;;;;;;12.32;2.20;;;;;;;3.01;80.69;99832.25;5026847;28;20048;-78
2022/02/07 07:22:35;;;;;;;6.47;1.63;;;;;;;3.00;81.30;99829.63;5014907;28;20033;-78
2022/02/07 07:25:04;;;;;;;7.50;1.70;;;;;;;2.92;82.56;99834.72;5002916;28;20099;-78
2022/02/07 07:27:36;;;;;;;10.25;1.77;;;;;;;2.95;82.74;99857.34;4990344;28;20029;-78
2022/02/07 07:30:03;;;;;;;9.00;1.83;;;;;;;2.83;82.25;99842.44;5021293;28;20061;-78
2022/02/07 07:32:31;;;;;;;8.75;1.33;;;;;;;2.82;83.31;99838.06;5014200;28;20029;-78
2022/02/07 07:34:59;;;;;;;8.68;1.50;;;;;;;2.83;83.15;99851.13;5004755;28;20036;-78
2022/02/07 07:37:25;;;;;;;5.82;1.60;;;;;;;2.82;83.16;99864.97;5027373;28;20456;-78
2022/02/07 07:39:51;;;;;;;9.13;1.65;;;;;;;2.91;81.88;99872.09;5014127;28;20037;-77
2022/02/07 07:42:18;;;;;;;10.07;1.70;;;;;;;2.96;81.24;99866.91;5008558;28;20378;-78
2022/02/07 07:45:09;;;;;;;8.63;1.48;;;;;;;3.08;80.99;99883.59;5009416;28;20033;-78
2022/02/07 07:48:11;;;;;;;8.88;1.70;;;;;;;3.19;80.13;99881.13;4995153;28;20375;-78
2022/02/07 07:51:04;;;;;;;10.55;2.05;;;;;;;3.25;79.95;99894.28;5011901;28;20033;-78
2022/02/07 07:53:58;;;;;;;6.72;1.95;;;;;;;3.27;79.34;99922.97;5010090;28;20037;-78
2022/02/07 08:02:10;;;;;;;7.38;2.42;;;;;;;3.56;77.24;99925.06;5014379;28;20537;-79
2022/02/07 08:04:36;;;;;;;9.52;1.50;;;;;;;3.59;75.87;99948.59;5008455;28;20037;-79
2022/02/07 08:07:11;;;;;;;12.32;2.50;;;;;;;3.72;76.14;99934.84;5015190;28;20044;-78
2022/02/07 08:10:08;;;;;;;7.40;1.65;;;;;;;3.80;75.04;99942.75;5006326;28;20113;-79
2022/02/07 08:12:48;;;;;;;4.25;1.20;;;;;;;3.88;74.60;99931.56;5005600;28;20061;-79
2022/02/07 08:15:15;;;;;;;5.70;1.40;;;;;;;3.86;74.92;99948.94;5006494;28;20401;-79
2022/02/07 08:17:41;;;;;;;4.05;1.30;;;;;;;3.97;74.60;99932.53;5028630;28;20033;-79
2022/02/07 08:20:07;;;;;;;4.55;1.13;;;;;;;4.03;73.67;99958.69;5022735;28;20075;-79
2022/02/07 08:22:32;;;;;;;6.05;1.50;;;;;;;4.08;74.20;99954.41;5024100;28;20033;-79
2022/02/07 08:25:00;;;;;;;4.57;1.33;;;;;;;4.09;73.85;99956.16;5021145;28;20127;-79
2022/02/07 08:27:27;;;;;;;6.90;1.40;;;;;;;4.07;73.09;99979.63;5007214;28;20490;-80
2022/02/07 08:29:54;;;;;;;6.53;1.33;;;;;;;4.18;73.24;99978.00;5022464;28;20620;-79
2022/02/07 08:32:20;;;;;;;5.72;1.73;;;;;;;4.14;73.41;99997.13;5023561;28;20038;-79
2022/02/07 08:34:45;;;;;;;5.88;1.30;;;;;;;4.18;73.66;99971.91;5023298;28;20033;-79
2022/02/07 08:37:11;;;;;;;6.40;1.58;;;;;;;4.15;73.30;99988.44;5029062;28;20051;-79
2022/02/07 08:39:36;;;;;;;5.75;1.65;;;;;;;4.13;73.85;99999.72;5010580;28;20045;-80
2022/02/07 08:42:02;;;;;;;5.18;1.27;;;;;;;4.10;73.61;100016.22;5014659;28;20116;-79
2022/02/07 08:44:27;;;;;;;7.93;1.25;;;;;;;4.14;73.43;100011.94;5003676;28;20461;-79
2022/02/07 08:46:54;;;;;;;3.75;1.25;;;;;;;4.20;73.13;100017.22;5029150;28;20037;-79
2022/02/07 08:49:19;;;;;;;3.97;1.08;;;;;;;4.29;73.13;100039.94;5005048;28;20128;-80
2022/02/07 08:51:45;;;;;;;3.55;1.15;;;;;;;4.27;73.51;100029.50;5024836;28;20639;-79
2022/02/07 08:54:10;;;;;;;7.30;1.50;;;;;;;4.33;73.66;100042.63;5029875;28;20038;-80
2022/02/07 08:56:47;;;;;;;6.15;0.90;;;;;;;4.42;72.63;100049.69;5025777;28;20036;-80
2022/02/07 08:59:12;;;;;;;5.07;1.17;;;;;;;4.45;73.31;100033.16;5015577;28;20029;-79
2022/02/07 09:02:04;;;;;;;2.80;0.90;;;;;;;4.57;72.56;100065.53;5002466;28;20048;-80
2022/02/07 09:07:33;;;;;;;4.80;0.98;;;;;;;4.47;72.24;100073.25;4945981;28;20039;-80
2022/02/07 09:09:58;;;;;;;6.47;1.27;;;;;;;4.52;71.72;100076.78;5010754;28;20049;-80
2022/02/07 09:12:24;;;;;;;3.80;1.02;;;;;;;4.43;71.96;100092.34;5025501;28;20048;-80
2022/02/07 09:15:06;;;;;;;4.82;1.38;;;;;;;4.56;71.38;100071.63;5023071;28;20116;-79
2022/02/07 09:17:31;;;;;;;4.47;0.73;;;;;;;4.51;71.74;100082.91;5024783;28;20068;-79
2022/02/07 09:19:56;;;;;;;4.13;1.10;;;;;;;4.61;72.31;100076.88;5011037;28;20091;-80
2022/02/07 09:22:22;;;;;;;4.72;1.08;;;;;;;4.67;71.25;100081.31;5014324;28;20025;-79
2022/02/07 09:24:47;;;;;;;7.55;0.82;;;;;;;4.81;70.70;100079.72;5035336;28;20079;-79
2022/02/07 09:27:12;;;;;;;4.10;1.00;;;;;;;4.92;70.58;100088.53;5035568;28;20048;-80
2022/02/07 09:29:38;;;;;;;5.15;0.80;;;;;;;4.89;70.85;100092.88;5029856;28;20033;-80
2022/02/07 09:32:04;;;;;;;4.32;1.02;;;;;;;4.95;70.50;100087.69;5031940;28;20445;-79
2022/02/07 09:34:29;;;;;;;4.72;1.10;;;;;;;5.08;70.96;100110.47;5027415;28;20040;-80
2022/02/07 09:36:56;;;;;;;4.53;1.92;;;;;;;4.99;70.24;100106.03;5027460;28;20033;-80
2022/02/07 09:39:24;;;;;;;4.78;1.17;;;;;;;4.92;70.54;100103.34;5027045;28;20504;-80
2022/02/07 09:41:52;;;;;;;6.30;1.30;;;;;;;5.02;69.97;100105.19;5025816;28;20077;-80
2022/02/07 09:44:21;;;;;;;5.40;1.20;;;;;;;5.01;70.57;100116.53;5024218;28;20101;-79
2022/02/07 09:46:47;;;;;;;5.60;0.80;;;;;;;4.83;71.36;100125.94;5029140;28;20033;-80
2022/02/07 09:49:18;;;;;;;3.88;0.65;;;;;;;4.89;71.27;100150.38;5029419;28;20452;-80
2022/02/07 09:51:45;;;;;;;7.70;0.93;;;;;;;4.76;71.65;100150.25;5015331;28;20045;-81
2022/02/07 09:54:15;;;;;;;7.40;1.35;;;;;;;4.80;71.66;100167.72;5027821;28;20440;-80
2022/02/07 09:56:41;;;;;;;4.25;0.95;;;;;;;4.95;72.01;100139.97;5026441;28;20116;-80
2022/02/07 09:59:08;;;;;;;5.10;1.40;;;;;;;4.78;72.05;100153.75;5026926;28;20064;-80
2022/02/07 10:01:36;;;;;;;9.10;1.17;;;;;;;4.84;72.29;100158.19;5007892;28;20033;-80
2022/02/07 10:04:09;;;;;;;5.53;0.98;;;;;;;4.99;71.85;100157.47;5027143;28;20041;-80
2022/02/07 10:06:45;;;;;;;14.98;1.50;;;;;;;5.00;72.26;100182.75;5017404;28;20055;-80
2022/02/07 10:11:59;;;;;;;6.75;0.90;;;;;;;5.22;71.19;100192.59;5026405;28;20088;-80
2022/02/07 10:14:52;;;;;;;8.00;1.48;;;;;;;5.25;71.24;100179.53;5010347;28;20042;-80
2022/02/07 10:17:40;;;;;;;8.93;1.42;;;;;;;5.41;71.09;100182.31;5028447;28;20041;-80
2022/02/07 10:37:51;;;;;;;10.07;2.15;;;;;;;5.87;68.70;100224.59;5025031;28;20048;-79
2022/02/07 10:43:07;;;;;;;10.35;2.55;;;;;;;5.71;68.57;100221.84;5014326;28;20069;-80
2022/02/07 10:45:47;;;;;;;11.15;2.25;;;;;;;5.78;68.41;100240.22;5015859;28;20041;-80
2022/02/07 10:48:26;;;;;;;9.23;2.03;;;;;;;5.64;68.70;100263.69;5005811;28;20045;-79
2022/02/07 10:51:13;;;;;;;12.07;1.90;;;;;;;5.68;68.01;100271.53;5024750;28;20175;-79
2022/02/07 10:53:42;;;;;;;11.43;2.10;;;;;;;5.76;68.69;100253.28;5007077;28;20049;-79
2022/02/07 10:56:08;;;;;;;12.50;1.80;;;;;;;5.98;68.18;100246.53;5025571;28;20084;-79
2022/02/07 10:58:34;;;;;;;16.33;1.98;;;;;;;6.15;67.22;100288.59;5008814;28;20033;-80
2022/02/07 11:01:11;;;;;;;9.95;1.52;;;;;;;6.16;66.07;100277.25;5006928;28;20052;-80
2022/02/07 11:03:43;;;;;;;14.23;2.78;;;;;;;6.19;65.88;100271.16;5007586;28;20516;-80
2022/02/07 11:06:11;;;;;;;10.65;1.88;;;;;;;6.20;66.40;100281.63;5016764;28;20041;-81
2022/02/07 11:14:13;;;;;;;15.57;2.28;;;;;;;6.11;66.08;100279.84;5030533;28;20129;-82
2022/02/07 11:17:15;;;;;;;11.35;2.30;;;;;;;6.26;65.74;100284.31;5029658;28;20075;-78
2022/02/07 11:25:11;;;;;;;10.80;2.38;;;;;;;6.55;64.07;100300.25;5023035;28;20560;-79
2022/02/07 11:27:49;;;;;;;10.48;2.20;;;;;;;6.65;64.55;100284.56;5014471;28;20041;-81
2022/02/07 11:30:16;;;;;;;9.02;2.70;;;;;;;6.65;63.28;100292.44;5025225;28;20049;-80
2022/02/07 11:32:47;;;;;;;11.65;2.55;;;;;;;6.84;62.72;100315.28;5027887;28;20390;-81
2022/02/07 11:35:22;;;;;;;14.15;2.38;;;;;;;6.99;62.71;100304.84;5030248;28;20046;-81
2022/02/07 11:38:10;;;;;;;16.02;2.80;;;;;;;7.21;61.23;100308.47;5017045;28;20132;-81
2022/02/07 11:40:42;;;;;;;15.07;2.90;;;;;;;7.25;59.57;100382.84;5015715;28;20029;-79
2022/02/07 11:43:16;;;;;;;17.23;2.43;;;;;;;7.11;59.59;100324.16;5014328;28;20126;-81
2022/02/07 11:46:05;;;;;;;9.30;2.22;;;;;;;7.05;60.18;100327.63;5006922;28;20048;-81
2022/02/07 11:48:32;;;;;;;12.73;2.35;;;;;;;7.08;60.04;100332.03;5020771;28;20076;-75
2022/02/07 11:51:02;;;;;;;13.18;2.25;;;;;;;7.21;60.11;100339.97;5021538;28;20033;-76
2022/02/07 11:53:32;;;;;;;15.65;2.58;;;;;;;7.28;59.60;100348.72;5024767;28;20033;-76
2022/02/07 11:56:07;;;;;;;11.63;2.22;;;;;;;7.31;59.21;100354.00;5022604;28;20037;-75
2022/02/07 11:58:57;;;;;;;11.88;2.80;;;;;;;6.95;57.49;100463.16;5022219;28;20033;-76
2022/02/07 12:01:48;;;;;;;10.02;2.08;;;;;;;6.86;59.22;100368.63;5022799;28;20041;-75
2022/02/07 12:04:43;;;;;;;11.25;2.47;;;;;;;6.86;58.38;100378.22;5021878;28;20068;-75
2022/02/07 12:07:15;;;;;;;8.50;1.98;;;;;;;7.00;58.59;100363.47;5019106;28;20123;-75
2022/02/07 12:10:04;;;;;;;17.05;2.25;;;;;;;7.24;57.54;100354.84;5024681;28;20580;-75
2022/02/07 12:12:30;;;;;;;14.10;2.35;;;;;;;7.40;56.66;100356.66;5022014;28;20042;-75
2022/02/07 12:15:04;;;;;;;10.68;2.17;;;;;;;7.76;55.28;100391.81;5025556;28;20036;-75
2022/02/07 12:17:44;;;;;;;15.30;3.95;;;;;;;7.65;56.17;100370.75;5024869;28;20048;-75
2022/02/07 12:20:12;;;;;;;14.82;3.17;;;;;;;7.57;55.83;100364.63;5022469;28;20513;-75
2022/02/07 12:22:49;;;;;;;13.98;3.15;;;;;;;7.69;55.08;100393.53;5018925;28;20092;-75
2022/02/07 12:25:22;;;;;;;12.75;2.55;;;;;;;7.73;55.89;100378.66;5024093;28;20453;-75
2022/02/07 12:27:47;;;;;;;;;;;;;;;7.90;54.40;100416.34;5024484;28;20528;-75
2022/02/07 12:30:29;;;;;;;14.32;2.90;;;;;;;7.83;53.12;100408.44;5022454;28;19913;-75
2022/02/07 12:32:55;;;;;;;15.75;3.55;;;;;;;8.12;53.95;100395.38;5023109;28;20057;-75
2022/02/07 12:35:24;;;;;;;14.15;2.75;;;;;;;7.99;53.27;100388.34;5022085;28;20497;-75
2022/02/07 12:37:49;;;;;;;13.48;2.63;;;;;;;7.66;53.23;100432.91;5019963;28;20050;-75
2022/02/07 12:40:15;;;;;;;10.20;2.45;;;;;;;7.49;53.05;100417.94;5021521;28;20539;-75
2022/02/07 12:42:43;;;;;;;14.57;2.78;;;;;;;7.54;53.99;100403.09;5022850;28;20038;-75
2022/02/07 12:45:08;;;;;;;11.75;2.35;;;;;;;7.49;53.28;100405.69;5018926;28;20573;-75
2022/02/07 12:47:37;;;;;;;14.38;2.47;;;;;;;7.79;52.53;100433.84;5021633;28;20112;-75
2022/02/07 12:50:10;;;;;;;7.40;1.90;;;;;;;7.61;52.33;100423.28;5020979;28;20049;-75
2022/02/07 12:52:37;;;;;;;10.93;2.10;;;;;;;7.46;51.00;100451.19;5018526;28;20507;-75
2022/02/07 12:55:05;;;;;;;9.77;1.85;;;;;;;7.49;50.31;100460.84;5025768;28;20061;-75
2022/02/07 12:57:38;;;;;;;11.68;2.10;;;;;;;7.64;51.11;100428.53;5029088;28;20493;-75
2022/02/07 13:00:05;;;;;;;9.38;1.80;;;;;;;7.36;50.91;100454.69;5028949;28;20087;-75
2022/02/07 13:02:30;;;;;;;11.57;2.03;;;;;;;7.31;51.93;100427.50;5027470;28;20042;-75
2022/02/07 13:04:56;;;;;;;20.77;2.20;;;;;;;7.45;52.47;100438.94;5030931;28;20120;-75
2022/02/07 13:07:24;;;;;;;9.75;1.83;;;;;;;7.45;52.44;100431.06;5029663;28;20131;-75
2022/02/07 13:09:53;;;;;;;10.65;2.40;;;;;;;7.41;52.52;100455.59;5023067;28;20100;-75
2022/02/07 13:12:35;;;;;;;9.80;1.90;;;;;;;7.47;51.03;100450.34;5024316;28;20041;-75
2022/02/07 13:15:01;;;;;;;12.63;2.08;;;;;;;7.35;51.86;100473.91;5025631;28;20083;-75
2022/02/07 13:17:28;;;;;;;12.20;2.25;;;;;;;7.13;51.70;100445.78;5013421;28;20445;-75
2022/02/07 13:19:54;;;;;;;12.48;2.40;;;;;;;7.02;51.31;100485.94;4999795;28;20572;-75
2022/02/07 13:22:24;;;;;;;17.85;2.75;;;;;;;6.95;52.54;100502.50;5026010;28;20390;-75
2022/02/07 13:24:50;;;;;;;11.20;2.47;;;;;;;7.00;53.73;100456.19;5022638;28;20080;-73
2022/02/07 13:27:18;;;;;;;14.23;2.50;;;;;;;6.93;54.61;100480.63;5024572;28;20129;-73
2022/02/07 13:29:46;;;;;;;10.23;2.05;;;;;;;7.02;55.15;100485.03;5023748;28;20169;-74
2022/02/07 13:32:14;;;;;;;14.05;3.05;;;;;;;7.35;55.50;100473.91;5011185;28;20382;-74
2022/02/07 13:34:40;;;;;;;10.07;2.75;;;;;;;7.89;53.48;100467.16;5025673;28;20037;-74
2022/02/07 13:37:13;;;;;;;12.48;2.95;;;;;;;8.22;52.74;100470.75;5026242;28;20401;-74
2022/02/07 13:40:03;;;;;;;11.20;2.38;;;;;;;8.01;52.14;100492.59;5026096;28;20501;-74
2022/02/07 13:42:31;;;;;;;10.73;2.53;;;;;;;7.83;52.35;100493.44;5025190;28;20045;-73
2022/02/07 13:45:07;;;;;;;10.55;2.60;;;;;;;7.57;52.73;100495.03;5023890;28;20387;-73
2022/02/07 13:47:33;;;;;;;11.93;2.40;;;;;;;7.65;53.50;100520.50;5022911;28;20042;-74
2022/02/07 13:50:02;;;;;;;8.80;2.10;;;;;;;7.58;51.77;100557.22;5005639;28;20452;-74
2022/02/07 13:52:30;;;;;;;13.18;2.63;;;;;;;7.55;51.82;100520.44;5025053;28;20049;-74
2022/02/07 13:55:11;;;;;;;14.98;2.50;;;;;;;7.55;51.71;100526.56;5027740;28;20087;-73
2022/02/07 13:57:54;;;;;;;8.90;2.35;;;;;;;7.51;52.09;100577.28;5028595;28;20604;-74
2022/02/07 14:00:21;;;;;;;12.63;2.75;;;;;;;7.49;52.42;100523.88;5029375;28;20041;-73
2022/02/07 14:02:47;;;;;;;14.27;2.60;;;;;;;7.36;52.81;100612.22;5027293;28;20025;-74
2022/02/07 14:05:13;;;;;;;12.98;3.08;;;;;;;7.30;53.81;100541.25;5023023;28;20049;-73
2022/02/07 14:07:53;;;;;;;14.73;3.83;;;;;;;7.29;54.14;100541.25;5026695;28;20033;-74
2022/02/07 14:10:20;;;;;;;20.40;4.55;;;;;;;7.45;53.96;100557.13;5025134;28;20489;-74
2022/02/07 14:12:46;;;;;;;12.05;2.25;;;;;;;7.32;53.22;100568.41;5024715;28;20481;-74
2022/02/07 14:15:12;;;;;;;13.05;2.47;;;;;;;7.56;52.86;100593.09;5024298;28;20037;-73
2022/02/07 14:17:43;;;;;;;12.85;3.05;;;;;;;7.73;52.33;100591.47;5021683;28;20038;-74
2022/02/07 14:20:11;;;;;;;14.85;4.47;;;;;;;7.98;51.87;100586.34;5027273;28;20044;-74